sensor_id;sensor_type;location;lat;lon;timestamp;pressure;altitude;pressure_sealevel;temperature;humidity
75668;BME280;64266;48.798;44.756;2024-02-04T00:02:29;100341.09;;;2.93;73.17
75668;BME280;64266;48.798;44.756;2024-02-04T00:07:32;100339.66;;;3.05;73.17
75668;BME280;64266;48.798;44.756;2024-02-04T00:12:35;100344.28;;;3.17;73.89
75668;BME280;64266;48.798;44.756;2024-02-04T00:17:38;100246.34;;;2.60;73.00
75668;BME280;64266;48.798;44.756;2024-02-04T00:22:42;100303.44;;;3.08;74.42
75668;BME280;64266;48.798;44.756;2024-02-04T00:27:44;100291.34;;;2.93;74.19
75668;BME280;64266;48.798;44.756;2024-02-04T00:32:47;100294.97;;;3.06;74.80
75668;BME280;64266;48.798;44.756;2024-02-04T00:37:50;100283.69;;;3.06;73.40
75668;BME280;64266;48.798;44.756;2024-02-04T00:42:54;100249.16;;;2.88;74.69
75668;BME280;64266;48.798;44.756;2024-02-04T00:47:57;100194.09;;;2.66;73.85
75668;BME280;64266;48.798;44.756;2024-02-04T00:53:00;100259.63;;;3.17;74.26
75668;BME280;64266;48.798;44.756;2024-02-04T00:58:03;100169.56;;;2.67;75.34
75668;BME280;64266;48.798;44.756;2024-02-04T01:03:06;100221.88;;;3.11;76.00
75668;BME280;64266;48.798;44.756;2024-02-04T01:08:09;100229.09;;;3.24;75.33
75668;BME280;64266;48.798;44.756;2024-02-04T01:13:12;100170.34;;;2.97;74.55
75668;BME280;64266;48.798;44.756;2024-02-04T01:18:14;100149.78;;;2.80;75.35
75668;BME280;64266;48.798;44.756;2024-02-04T01:23:17;100173.41;;;3.01;74.58
75668;BME280;64266;48.798;44.756;2024-02-04T01:28:21;100137.13;;;2.83;76.21
75668;BME280;64266;48.798;44.756;2024-02-04T01:33:24;100167.59;;;3.05;77.66
75668;BME280;64266;48.798;44.756;2024-02-04T01:38:28;100173.38;;;3.15;77.70
75668;BME280;64266;48.798;44.756;2024-02-04T01:43:32;100153.91;;;3.03;77.79
75668;BME280;64266;48.798;44.756;2024-02-04T01:48:35;100084.31;;;2.65;78.05
75668;BME280;64266;48.798;44.756;2024-02-04T01:53:40;100170.09;;;3.28;79.44
75668;BME280;64266;48.798;44.756;2024-02-04T01:58:45;100153.41;;;3.14;77.95
75668;BME280;64266;48.798;44.756;2024-02-04T02:03:48;100118.88;;;3.04;79.97
75668;BME280;64266;48.798;44.756;2024-02-04T02:08:58;100145.59;;;3.36;79.88
75668;BME280;64266;48.798;44.756;2024-02-04T02:14:08;100130.69;;;3.36;79.40
75668;BME280;64266;48.798;44.756;2024-02-04T02:25:09;100111.13;;;3.53;79.52
75668;BME280;64266;48.798;44.756;2024-02-04T02:30:13;100066.50;;;3.47;79.71
75668;BME280;64266;48.798;44.756;2024-02-04T02:35:19;100037.72;;;3.11;81.26
75668;BME280;64266;48.798;44.756;2024-02-04T02:45:32;100046.44;;;3.39;80.57
75668;BME280;64266;48.798;44.756;2024-02-04T02:50:36;100038.59;;;3.39;80.54
75668;BME280;64266;48.798;44.756;2024-02-04T02:55:39;100003.41;;;3.27;nan
75668;BME280;64266;48.798;44.756;2024-02-04T03:00:44;100016.88;;;3.45;81.31
75668;BME280;64266;48.798;44.756;2024-02-04T03:05:48;100013.03;;;3.41;82.51
75668;BME280;64266;48.798;44.756;2024-02-04T03:10:52;100051.06;;;3.58;81.69
75668;BME280;64266;48.798;44.756;2024-02-04T03:15:55;100008.94;;;3.39;82.62
75668;BME280;64266;48.798;44.756;2024-02-04T03:20:59;100026.59;;;3.51;82.84
75668;BME280;64266;48.798;44.756;2024-02-04T03:26:02;99984.31;;;3.33;83.68
75668;BME280;64266;48.798;44.756;2024-02-04T03:31:07;99956.09;;;3.07;83.31
75668;BME280;64266;48.798;44.756;2024-02-04T03:36:17;99980.72;;;3.34;83.17
75668;BME280;64266;48.798;44.756;2024-02-04T03:41:23;100020.47;;;3.65;83.39
75668;BME280;64266;48.798;44.756;2024-02-04T03:46:28;100018.63;;;3.59;83.44
75668;BME280;64266;48.798;44.756;2024-02-04T03:51:31;99996.88;;;3.65;83.96
75668;BME280;64266;48.798;44.756;2024-02-04T03:56:34;100011.19;;;3.69;82.84
75668;BME280;64266;48.798;44.756;2024-02-04T04:01:37;99963.84;;;3.43;83.76
75668;BME280;64266;48.798;44.756;2024-02-04T04:06:42;100001.75;;;3.68;84.77
75668;BME280;64266;48.798;44.756;2024-02-04T04:11:45;99989.00;;;3.65;83.95
75668;BME280;64266;48.798;44.756;2024-02-04T04:16:48;100013.94;;;3.82;83.92
75668;BME280;64266;48.798;44.756;2024-02-04T04:21:52;99984.00;;;3.70;82.61
75668;BME280;64266;48.798;44.756;2024-02-04T04:26:56;100000.75;;;3.76;82.79
75668;BME280;64266;48.798;44.756;2024-02-04T04:31:58;99990.16;;;3.84;83.28
75668;BME280;64266;48.798;44.756;2024-02-04T04:37:01;99943.97;;;3.55;81.45
75668;BME280;64266;48.798;44.756;2024-02-04T04:42:04;99956.44;;;3.81;82.42
75668;BME280;64266;48.798;44.756;2024-02-04T04:47:09;99974.84;;;3.88;81.55
75668;BME280;64266;48.798;44.756;2024-02-04T04:52:12;99986.63;;;4.05;81.38
75668;BME280;64266;48.798;44.756;2024-02-04T04:57:20;99970.81;;;3.92;80.61
75668;BME280;64266;48.798;44.756;2024-02-04T05:02:22;99983.63;;;4.08;79.78
75668;BME280;64266;48.798;44.756;2024-02-04T05:07:26;99927.22;;;3.84;81.16
75668;BME280;64266;48.798;44.756;2024-02-04T05:12:30;99942.78;;;3.92;78.90
75668;BME280;64266;48.798;44.756;2024-02-04T05:17:34;99982.66;;;4.22;80.06
75668;BME280;64266;48.798;44.756;2024-02-04T05:22:38;99982.91;;;4.27;80.15
75668;BME280;64266;48.798;44.756;2024-02-04T05:27:41;99941.88;;;4.19;80.52
75668;BME280;64266;48.798;44.756;2024-02-04T05:32:44;99978.91;;;4.37;79.08
75668;BME280;64266;48.798;44.756;2024-02-04T05:37:48;99961.13;;;4.33;79.44
75668;BME280;64266;48.798;44.756;2024-02-04T05:42:51;99932.59;;;4.17;78.41
75668;BME280;64266;48.798;44.756;2024-02-04T05:47:54;99946.38;;;4.32;77.94
75668;BME280;64266;48.798;44.756;2024-02-04T05:52:56;99937.53;;;4.40;77.53
75668;BME280;64266;48.798;44.756;2024-02-04T05:57:59;99942.19;;;4.44;78.19
75668;BME280;64266;48.798;44.756;2024-02-04T06:03:02;99960.75;;;4.49;77.70
75668;BME280;64266;48.798;44.756;2024-02-04T06:08:06;99912.47;;;4.30;78.85
75668;BME280;64266;48.798;44.756;2024-02-04T06:13:09;99919.75;;;4.42;77.59
75668;BME280;64266;48.798;44.756;2024-02-04T06:18:14;99900.41;;;4.43;76.43
75668;BME280;64266;48.798;44.756;2024-02-04T06:23:17;99938.84;;;4.76;77.30
75668;BME280;64266;48.798;44.756;2024-02-04T06:28:22;99933.19;;;4.79;76.65
75668;BME280;64266;48.798;44.756;2024-02-04T06:33:24;99886.66;;;4.47;76.37
75668;BME280;64266;48.798;44.756;2024-02-04T06:38:28;99916.19;;;4.75;76.53
75668;BME280;64266;48.798;44.756;2024-02-04T06:43:31;99912.56;;;4.83;75.18
75668;BME280;64266;48.798;44.756;2024-02-04T06:48:38;99885.50;;;4.82;75.18
75668;BME280;64266;48.798;44.756;2024-02-04T06:53:42;99877.22;;;4.79;74.43
75668;BME280;64266;48.798;44.756;2024-02-04T06:58:45;99904.50;;;4.84;74.21
75668;BME280;64266;48.798;44.756;2024-02-04T07:03:48;99906.72;;;4.87;74.48
75668;BME280;64266;48.798;44.756;2024-02-04T07:08:53;99865.25;;;4.50;75.12
75668;BME280;64266;48.798;44.756;2024-02-04T07:13:58;99892.94;;;4.66;75.13
75668;BME280;64266;48.798;44.756;2024-02-04T07:19:03;99876.59;;;4.57;74.90
75668;BME280;64266;48.798;44.756;2024-02-04T07:24:06;99900.84;;;4.79;76.54
75668;BME280;64266;48.798;44.756;2024-02-04T07:29:12;99885.09;;;4.85;75.58
75668;BME280;64266;48.798;44.756;2024-02-04T07:34:17;99888.31;;;4.87;75.34
75668;BME280;64266;48.798;44.756;2024-02-04T07:39:20;99838.81;;;4.52;75.51
75668;BME280;64266;48.798;44.756;2024-02-04T07:44:23;99904.09;;;5.01;74.72
75668;BME280;64266;48.798;44.756;2024-02-04T07:49:26;99872.56;;;4.87;75.08
75668;BME280;64266;48.798;44.756;2024-02-04T07:54:29;99924.72;;;5.17;75.38
75668;BME280;64266;48.798;44.756;2024-02-04T07:59:33;99892.78;;;5.07;74.89
75668;BME280;64266;48.798;44.756;2024-02-04T08:04:36;99880.88;;;5.04;74.98
75668;BME280;64266;48.798;44.756;2024-02-04T08:09:41;99872.56;;;4.94;74.70
75668;BME280;64266;48.798;44.756;2024-02-04T08:14:44;99862.28;;;4.79;74.77
75668;BME280;64266;48.798;44.756;2024-02-04T08:19:48;99858.84;;;4.85;75.88
75668;BME280;64266;48.798;44.756;2024-02-04T08:24:52;99880.66;;;5.06;75.50
75668;BME280;64266;48.798;44.756;2024-02-04T08:29:57;99895.59;;;5.38;76.38
75668;BME280;64266;48.798;44.756;2024-02-04T08:35:01;99854.97;;;5.08;76.49
75668;BME280;64266;48.798;44.756;2024-02-04T08:40:06;99787.31;;;4.70;77.24
75668;BME280;64266;48.798;44.756;2024-02-04T08:45:10;99864.06;;;5.25;78.17
75668;BME280;64266;48.798;44.756;2024-02-04T08:50:15;99856.19;;;5.25;76.89
75668;BME280;64266;48.798;44.756;2024-02-04T08:55:18;99869.69;;;5.41;77.63
75668;BME280;64266;48.798;44.756;2024-02-04T09:00:21;99828.50;;;5.16;78.81
75668;BME280;64266;48.798;44.756;2024-02-04T09:05:24;99809.28;;;5.15;77.96
75668;BME280;64266;48.798;44.756;2024-02-04T09:10:28;99845.03;;;5.29;77.62
75668;BME280;64266;48.798;44.756;2024-02-04T09:15:32;99804.69;;;4.98;77.85
75668;BME280;64266;48.798;44.756;2024-02-04T09:20:36;99841.00;;;5.27;78.13
75668;BME280;64266;48.798;44.756;2024-02-04T09:25:40;99811.09;;;5.15;78.16
75668;BME280;64266;48.798;44.756;2024-02-04T09:30:44;99823.81;;;5.24;77.19
75668;BME280;64266;48.798;44.756;2024-02-04T09:35:47;99838.34;;;5.33;77.65
75668;BME280;64266;48.798;44.756;2024-02-04T09:40:53;99849.06;;;5.38;77.45
75668;BME280;64266;48.798;44.756;2024-02-04T09:45:56;99819.78;;;5.22;76.88
75668;BME280;64266;48.798;44.756;2024-02-04T09:51:00;99836.72;;;5.32;76.19
75668;BME280;64266;48.798;44.756;2024-02-04T09:56:03;99838.13;;;5.41;76.57
75668;BME280;64266;48.798;44.756;2024-02-04T10:01:10;99768.50;;;4.86;76.81
75668;BME280;64266;48.798;44.756;2024-02-04T10:06:13;99840.75;;;5.41;77.53
75668;BME280;64266;48.798;44.756;2024-02-04T10:11:17;99812.72;;;5.29;77.18
75668;BME280;64266;48.798;44.756;2024-02-04T10:16:22;99803.78;;;5.30;77.77
75668;BME280;64266;48.798;44.756;2024-02-04T10:21:25;99813.81;;;5.59;76.40
75668;BME280;64266;48.798;44.756;2024-02-04T10:26:29;99823.84;;;5.75;75.34
75668;BME280;64266;48.798;44.756;2024-02-04T10:31:34;99785.94;;;5.45;75.00
75668;BME280;64266;48.798;44.756;2024-02-04T10:36:37;99758.69;;;5.33;76.28
75668;BME280;64266;48.798;44.756;2024-02-04T10:41:49;99801.25;;;5.61;76.32
75668;BME280;64266;48.798;44.756;2024-02-04T10:46:55;99812.22;;;5.52;77.05
75668;BME280;64266;48.798;44.756;2024-02-04T10:52:06;99821.50;;;5.61;78.07
75668;BME280;64266;48.798;44.756;2024-02-04T10:57:12;99791.44;;;5.43;76.73
75668;BME280;64266;48.798;44.756;2024-02-04T11:02:20;99828.97;;;5.64;76.85
75668;BME280;64266;48.798;44.756;2024-02-04T11:07:23;99771.25;;;5.31;76.87
75668;BME280;64266;48.798;44.756;2024-02-04T11:12:28;99790.63;;;5.43;77.46
75668;BME280;64266;48.798;44.756;2024-02-04T11:28:20;99817.69;;;5.57;78.48
75668;BME280;64266;48.798;44.756;2024-02-04T11:33:24;99792.84;;;5.39;78.63
75668;BME280;64266;48.798;44.756;2024-02-04T11:38:38;99789.63;;;5.37;78.48
75668;BME280;64266;48.798;44.756;2024-02-04T11:43:45;99811.00;;;5.54;78.31
75668;BME280;64266;48.798;44.756;2024-02-04T11:48:52;99779.53;;;5.28;78.46
75668;BME280;64266;48.798;44.756;2024-02-04T11:53:59;99745.22;;;5.10;78.68
75668;BME280;64266;48.798;44.756;2024-02-04T11:59:06;99812.19;;;5.65;78.27
75668;BME280;64266;48.798;44.756;2024-02-04T12:04:12;99703.16;;;5.16;77.36
75668;BME280;64266;48.798;44.756;2024-02-04T12:09:17;99776.97;;;5.66;76.00
75668;BME280;64266;48.798;44.756;2024-02-04T12:14:21;99801.41;;;5.73;76.40
75668;BME280;64266;48.798;44.756;2024-02-04T12:19:25;99818.38;;;5.83;75.41
75668;BME280;64266;48.798;44.756;2024-02-04T12:24:29;99815.19;;;5.75;75.74
75668;BME280;64266;48.798;44.756;2024-02-04T12:29:33;99796.59;;;5.63;75.64
75668;BME280;64266;48.798;44.756;2024-02-04T12:34:38;99813.94;;;5.77;75.36
75668;BME280;64266;48.798;44.756;2024-02-04T12:39:47;99817.22;;;5.66;76.69
75668;BME280;64266;48.798;44.756;2024-02-04T12:44:51;99808.19;;;5.49;76.72
75668;BME280;64266;48.798;44.756;2024-02-04T12:49:58;99840.03;;;5.79;77.98
75668;BME280;64266;48.798;44.756;2024-02-04T12:55:01;99762.53;;;5.30;78.34
75668;BME280;64266;48.798;44.756;2024-02-04T13:00:06;99805.28;;;5.64;76.59
75668;BME280;64266;48.798;44.756;2024-02-04T13:05:22;99820.25;;;5.70;77.36
75668;BME280;64266;48.798;44.756;2024-02-04T13:10:30;99834.63;;;5.67;77.29
75668;BME280;64266;48.798;44.756;2024-02-04T13:15:36;99836.78;;;5.83;77.05
75668;BME280;64266;48.798;44.756;2024-02-04T13:20:39;99746.34;;;5.33;77.14
75668;BME280;64266;48.798;44.756;2024-02-04T13:25:44;99789.31;;;5.65;76.65
75668;BME280;64266;48.798;44.756;2024-02-04T13:30:48;99831.13;;;5.93;75.42
75668;BME280;64266;48.798;44.756;2024-02-04T13:41:19;99846.47;;;6.03;76.50
75668;BME280;64266;48.798;44.756;2024-02-04T13:46:22;99828.53;;;5.73;76.74
75668;BME280;64266;48.798;44.756;2024-02-04T13:51:26;99791.59;;;5.55;76.09
75668;BME280;64266;48.798;44.756;2024-02-04T13:56:45;99858.19;;;6.00;75.37
75668;BME280;64266;48.798;44.756;2024-02-04T14:02:12;99764.75;;;5.40;74.88
75668;BME280;64266;48.798;44.756;2024-02-04T14:07:16;99862.66;;;5.99;76.01
75668;BME280;64266;48.798;44.756;2024-02-04T14:12:25;99817.97;;;5.80;74.94
75668;BME280;64266;48.798;44.756;2024-02-04T14:17:29;99862.16;;;6.16;74.97
75668;BME280;64266;48.798;44.756;2024-02-04T14:22:33;99853.09;;;6.12;74.13
75668;BME280;64266;48.798;44.756;2024-02-04T14:27:36;99864.22;;;6.14;74.53
75668;BME280;64266;48.798;44.756;2024-02-04T14:32:40;99865.97;;;6.26;74.20
75668;BME280;64266;48.798;44.756;2024-02-04T14:37:43;99861.78;;;6.12;73.26
75668;BME280;64266;48.798;44.756;2024-02-04T14:42:46;99814.97;;;5.76;73.55
75668;BME280;64266;48.798;44.756;2024-02-04T14:47:49;99879.81;;;6.15;72.43
75668;BME280;64266;48.798;44.756;2024-02-04T14:52:52;99873.22;;;5.93;73.78
75668;BME280;64266;48.798;44.756;2024-02-04T14:57:55;99902.31;;;6.05;72.15
75668;BME280;64266;48.798;44.756;2024-02-04T15:02:58;99910.41;;;6.03;73.60
75668;BME280;64266;48.798;44.756;2024-02-04T15:08:02;99914.47;;;6.06;72.91
75668;BME280;64266;48.798;44.756;2024-02-04T15:13:09;99924.94;;;6.12;73.25
75668;BME280;64266;48.798;44.756;2024-02-04T15:18:13;99878.69;;;5.78;72.04
75668;BME280;64266;48.798;44.756;2024-02-04T15:23:19;99913.91;;;5.90;73.10
75668;BME280;64266;48.798;44.756;2024-02-04T15:28:24;99939.50;;;6.21;72.08
75668;BME280;64266;48.798;44.756;2024-02-04T15:33:28;99907.13;;;6.14;71.23
75668;BME280;64266;48.798;44.756;2024-02-04T15:38:31;99869.53;;;6.00;70.17
75668;BME280;64266;48.798;44.756;2024-02-04T15:43:34;99883.22;;;6.16;69.71
75668;BME280;64266;48.798;44.756;2024-02-04T15:48:39;99859.22;;;5.99;69.36
75668;BME280;64266;48.798;44.756;2024-02-04T15:53:45;99933.50;;;6.52;69.47
75668;BME280;64266;48.798;44.756;2024-02-04T15:58:55;99913.28;;;6.46;68.57
75668;BME280;64266;48.798;44.756;2024-02-04T16:04:06;99920.56;;;6.44;68.16
75668;BME280;64266;48.798;44.756;2024-02-04T16:09:10;99915.72;;;6.41;67.80
75668;BME280;64266;48.798;44.756;2024-02-04T16:14:13;99920.56;;;6.44;67.46
75668;BME280;64266;48.798;44.756;2024-02-04T16:19:17;99896.97;;;6.24;67.53
75668;BME280;64266;48.798;44.756;2024-02-04T16:24:21;99903.06;;;6.18;68.71
75668;BME280;64266;48.798;44.756;2024-02-04T16:29:24;99900.28;;;6.00;67.68
75668;BME280;64266;48.798;44.756;2024-02-04T16:34:31;99917.28;;;6.11;67.36
75668;BME280;64266;48.798;44.756;2024-02-04T16:39:38;99926.16;;;6.16;67.79
75668;BME280;64266;48.798;44.756;2024-02-04T16:44:42;99956.47;;;6.25;67.77
75668;BME280;64266;48.798;44.756;2024-02-04T16:49:48;99861.34;;;5.64;68.69
75668;BME280;64266;48.798;44.756;2024-02-04T16:54:51;99935.69;;;6.11;69.30
75668;BME280;64266;48.798;44.756;2024-02-04T16:59:54;99963.16;;;6.28;69.67
75668;BME280;64266;48.798;44.756;2024-02-04T17:04:59;99927.81;;;6.04;69.26
75668;BME280;64266;48.798;44.756;2024-02-04T17:10:06;99962.78;;;6.24;69.02
75668;BME280;64266;48.798;44.756;2024-02-04T17:15:12;99974.50;;;6.28;69.46
75668;BME280;64266;48.798;44.756;2024-02-04T17:20:18;99953.84;;;6.32;69.44
75668;BME280;64266;48.798;44.756;2024-02-04T17:25:30;99927.97;;;6.16;69.37
75668;BME280;64266;48.798;44.756;2024-02-04T17:30:37;99887.59;;;5.77;69.29
75668;BME280;64266;48.798;44.756;2024-02-04T17:35:42;99963.97;;;6.28;68.88
75668;BME280;64266;48.798;44.756;2024-02-04T17:40:52;99922.22;;;5.87;68.37
75668;BME280;64266;48.798;44.756;2024-02-04T17:45:57;99950.28;;;6.07;69.95
75668;BME280;64266;48.798;44.756;2024-02-04T17:51:01;99979.19;;;6.20;69.26
75668;BME280;64266;48.798;44.756;2024-02-04T17:56:18;99966.19;;;6.25;69.48
75668;BME280;64266;48.798;44.756;2024-02-04T18:01:22;99927.63;;;6.06;69.13
75668;BME280;64266;48.798;44.756;2024-02-04T18:06:26;99972.47;;;6.30;69.90
75668;BME280;64266;48.798;44.756;2024-02-04T18:11:33;99965.41;;;6.24;69.70
75668;BME280;64266;48.798;44.756;2024-02-04T18:16:38;99947.59;;;6.26;69.39
75668;BME280;64266;48.798;44.756;2024-02-04T18:21:42;99917.00;;;6.25;69.25
75668;BME280;64266;48.798;44.756;2024-02-04T18:26:45;99963.50;;;6.44;68.31
75668;BME280;64266;48.798;44.756;2024-02-04T18:31:48;99887.78;;;5.95;69.00
75668;BME280;64266;48.798;44.756;2024-02-04T18:36:52;99977.88;;;6.48;67.34
75668;BME280;64266;48.798;44.756;2024-02-04T18:41:56;99944.38;;;6.18;67.54
75668;BME280;64266;48.798;44.756;2024-02-04T18:47:01;99948.47;;;6.00;68.21
75668;BME280;64266;48.798;44.756;2024-02-04T18:52:06;99974.56;;;6.15;68.76
75668;BME280;64266;48.798;44.756;2024-02-04T18:57:09;99938.56;;;6.03;69.62
75668;BME280;64266;48.798;44.756;2024-02-04T19:02:13;99968.09;;;6.11;67.92
75668;BME280;64266;48.798;44.756;2024-02-04T19:07:16;99982.19;;;6.30;69.45
75668;BME280;64266;48.798;44.756;2024-02-04T19:12:18;99941.00;;;5.97;69.00
75668;BME280;64266;48.798;44.756;2024-02-04T19:17:21;99901.19;;;5.74;68.26
75668;BME280;64266;48.798;44.756;2024-02-04T19:22:24;99971.69;;;6.23;69.42
75668;BME280;64266;48.798;44.756;2024-02-04T19:27:31;99941.78;;;6.05;69.11
75668;BME280;64266;48.798;44.756;2024-02-04T19:32:35;99965.56;;;6.36;68.16
75668;BME280;64266;48.798;44.756;2024-02-04T19:37:39;99966.56;;;6.35;68.96
75668;BME280;64266;48.798;44.756;2024-02-04T19:42:43;99983.78;;;6.31;68.64
75668;BME280;64266;48.798;44.756;2024-02-04T19:47:48;99931.44;;;6.03;68.74
75668;BME280;64266;48.798;44.756;2024-02-04T19:52:53;99976.91;;;6.36;68.21
75668;BME280;64266;48.798;44.756;2024-02-04T19:57:58;99976.69;;;6.38;68.18
75668;BME280;64266;48.798;44.756;2024-02-04T20:03:04;99955.66;;;6.31;67.30
75668;BME280;64266;48.798;44.756;2024-02-04T20:08:09;99964.94;;;6.34;66.41
75668;BME280;64266;48.798;44.756;2024-02-04T20:13:11;99950.22;;;6.20;67.30
75668;BME280;64266;48.798;44.756;2024-02-04T20:18:16;99948.81;;;6.24;67.53
75668;BME280;64266;48.798;44.756;2024-02-04T20:23:19;99963.16;;;6.28;67.87
75668;BME280;64266;48.798;44.756;2024-02-04T20:28:23;99972.84;;;6.34;67.37
75668;BME280;64266;48.798;44.756;2024-02-04T20:33:27;99949.69;;;6.05;66.01
75668;BME280;64266;48.798;44.756;2024-02-04T20:38:30;99934.75;;;5.79;68.10
75668;BME280;64266;48.798;44.756;2024-02-04T20:43:34;99971.34;;;6.00;67.63
75668;BME280;64266;48.798;44.756;2024-02-04T20:48:37;99955.00;;;5.65;68.57
75668;BME280;64266;48.798;44.756;2024-02-04T20:53:41;99933.97;;;5.65;69.18
75668;BME280;64266;48.798;44.756;2024-02-04T20:58:44;99877.19;;;5.25;68.75
75668;BME280;64266;48.798;44.756;2024-02-04T21:03:47;99936.38;;;5.60;69.24
75668;BME280;64266;48.798;44.756;2024-02-04T21:08:50;99976.84;;;5.85;70.12
75668;BME280;64266;48.798;44.756;2024-02-04T21:13:53;99951.56;;;5.78;69.69
75668;BME280;64266;48.798;44.756;2024-02-04T21:18:56;99958.63;;;5.84;69.51
75668;BME280;64266;48.798;44.756;2024-02-04T21:23:59;99970.16;;;5.96;69.60
75668;BME280;64266;48.798;44.756;2024-02-04T21:29:04;99917.38;;;5.65;68.80
75668;BME280;64266;48.798;44.756;2024-02-04T21:34:11;99920.41;;;5.68;69.33
75668;BME280;64266;48.798;44.756;2024-02-04T21:39:14;99940.63;;;5.81;68.39
75668;BME280;64266;48.798;44.756;2024-02-04T21:44:19;99934.97;;;5.71;68.91
75668;BME280;64266;48.798;44.756;2024-02-04T21:49:21;99969.97;;;5.84;68.49
75668;BME280;64266;48.798;44.756;2024-02-04T21:54:24;99925.88;;;5.60;68.53
75668;BME280;64266;48.798;44.756;2024-02-04T21:59:28;99953.97;;;5.79;68.08
75668;BME280;64266;48.798;44.756;2024-02-04T22:04:32;99952.75;;;5.75;68.59
75668;BME280;64266;48.798;44.756;2024-02-04T22:09:35;99977.84;;;5.91;67.61
75668;BME280;64266;48.798;44.756;2024-02-04T22:14:38;99929.69;;;5.77;67.42
75668;BME280;64266;48.798;44.756;2024-02-04T22:19:42;99939.00;;;5.73;67.94
75668;BME280;64266;48.798;44.756;2024-02-04T22:24:48;99895.38;;;5.26;68.16
75668;BME280;64266;48.798;44.756;2024-02-04T22:29:53;99951.38;;;5.53;68.16
75668;BME280;64266;48.798;44.756;2024-02-04T22:34:56;99954.22;;;5.58;68.46
75668;BME280;64266;48.798;44.756;2024-02-04T22:40:00;99941.69;;;5.47;69.38
75668;BME280;64266;48.798;44.756;2024-02-04T22:45:05;99990.78;;;5.79;68.80
75668;BME280;64266;48.798;44.756;2024-02-04T22:50:09;99971.38;;;5.67;68.38
75668;BME280;64266;48.798;44.756;2024-02-04T22:55:12;99929.53;;;5.46;69.14
75668;BME280;64266;48.798;44.756;2024-02-04T23:00:15;99957.44;;;5.67;68.90
75668;BME280;64266;48.798;44.756;2024-02-04T23:05:32;99938.84;;;5.35;69.31
75668;BME280;64266;48.798;44.756;2024-02-04T23:10:35;99936.84;;;5.24;68.46
75668;BME280;64266;48.798;44.756;2024-02-04T23:15:38;99976.28;;;5.44;69.00
75668;BME280;64266;48.798;44.756;2024-02-04T23:20:41;99969.38;;;5.43;69.02
75668;BME280;64266;48.798;44.756;2024-02-04T23:25:45;99982.94;;;5.46;69.68
75668;BME280;64266;48.798;44.756;2024-02-04T23:30:49;99875.00;;;4.89;68.81
75668;BME280;64266;48.798;44.756;2024-02-04T23:35:52;99965.94;;;5.49;68.84
75668;BME280;64266;48.798;44.756;2024-02-04T23:40:54;99956.44;;;5.48;69.42
75668;BME280;64266;48.798;44.756;2024-02-04T23:45:57;99941.06;;;5.52;68.58
75668;BME280;64266;48.798;44.756;2024-02-04T23:51:00;99929.72;;;5.44;68.77
75668;BME280;64266;48.798;44.756;2024-02-04T23:56:04;99928.72;;;5.45;68.83
